Time;durP1;ratioP1;P1;durP2;ratioP2;P2;SDS_P1;SDS_P2;PMS_P1;PMS_P2;Temp;Humidity;BMP_temperature;BMP_pressure;BME280_temperature;BME280_humidity;BME280_pressure;Samples;Min_cycle;Max_cycle;Signal;HPM_P1;HPM_P2
2022/12/23 00:00:06;;;;;;;0.08;0.08;;;9.60;99.90;;;;;;5052020;28;20644;-64
2022/12/23 00:02:31;;;;;;;0.30;0.30;;;9.60;99.90;;;;;;5052097;28;20219;-64
2022/12/23 00:04:56;;;;;;;0.00;0.00;;;9.50;99.90;;;;;;5050664;28;20181;-64
2022/12/23 00:07:22;;;;;;;0.00;0.00;;;9.50;99.90;;;;;;5050795;28;20466;-64
2022/12/23 00:09:47;;;;;;;0.00;0.00;;;9.50;99.90;;;;;;5051221;28;20196;-64
2022/12/23 00:15:06;;;;;;;0.00;0.00;;;9.50;99.90;;;;;;5049480;28;20188;-65
2022/12/23 00:17:37;;;;;;;0.00;0.00;;;9.50;99.90;;;;;;5055535;28;20624;-64
2022/12/23 00:20:04;;;;;;;0.00;0.00;;;9.50;99.90;;;;;;5055858;28;20629;-65
2022/12/23 00:25:14;;;;;;;0.00;0.00;;;9.50;99.90;;;;;;5053471;28;20177;-65
2022/12/23 00:27:40;;;;;;;0.00;0.00;;;9.60;99.90;;;;;;5053523;28;20177;-65
2022/12/23 00:30:09;;;;;;;0.00;0.00;;;9.50;99.90;;;;;;5055690;28;20195;-64
2022/12/23 00:32:34;;;;;;;0.00;0.00;;;9.50;99.90;;;;;;5055701;28;20220;-64
2022/12/23 00:35:00;;;;;;;0.00;0.00;;;9.50;99.90;;;;;;5055675;28;20162;-65
2022/12/23 00:37:25;;;;;;;0.00;0.00;;;9.50;99.90;;;;;;5055704;28;20177;-65
2022/12/23 00:42:53;;;;;;;0.00;0.00;;;9.50;99.90;;;;;;5055618;28;20535;-65
2022/12/23 00:45:18;;;;;;;0.17;0.17;;;9.50;99.90;;;;;;5055467;28;20214;-65
2022/12/23 00:50:30;;;;;;;0.00;0.00;;;9.50;99.90;;;;;;5055508;28;20211;-65
2022/12/23 00:52:56;;;;;;;0.00;0.00;;;9.40;99.90;;;;;;5055185;28;20189;-65
2022/12/23 00:55:23;;;;;;;0.00;0.00;;;9.40;99.90;;;;;;5055097;28;20176;-64
2022/12/23 00:57:48;;;;;;;0.00;0.00;;;9.40;99.90;;;;;;5055283;28;20188;-65
2022/12/23 01:00:14;;;;;;;0.00;0.00;;;9.40;99.90;;;;;;5055079;28;20181;-65
2022/12/23 01:05:36;;;;;;;0.00;0.00;;;9.50;99.90;;;;;;5055040;28;20188;-65
2022/12/23 01:08:10;;;;;;;0.00;0.00;;;9.50;99.90;;;;;;5055044;28;20226;-65
2022/12/23 01:10:38;;;;;;;0.00;0.00;;;9.60;99.90;;;;;;5054837;28;20256;-65
2022/12/23 01:13:04;;;;;;;0.00;0.00;;;9.60;99.90;;;;;;5054566;28;20305;-65
2022/12/23 01:15:30;;;;;;;0.00;0.00;;;9.70;99.90;;;;;;5054844;28;20260;-65
2022/12/23 01:17:55;;;;;;;0.17;0.10;;;9.70;99.90;;;;;;5054750;28;20181;-65
2022/12/23 01:20:21;;;;;;;0.00;0.00;;;9.80;99.90;;;;;;5054831;28;20176;-65
2022/12/23 01:22:47;;;;;;;0.00;0.00;;;9.80;99.90;;;;;;5054616;28;20659;-65
2022/12/23 01:25:12;;;;;;;0.00;0.00;;;9.90;99.90;;;;;;5054161;28;20205;-65
2022/12/23 01:27:38;;;;;;;0.00;0.00;;;10.00;99.90;;;;;;5053111;28;20192;-65
2022/12/23 01:30:05;;;;;;;0.55;0.20;;;10.10;99.90;;;;;;5053844;28;20174;-64
2022/12/23 01:32:31;;;;;;;0.00;0.00;;;10.20;99.90;;;;;;5053086;28;20252;-65
2022/12/23 01:34:56;;;;;;;0.00;0.00;;;10.40;99.90;;;;;;5054348;28;20197;-65
2022/12/23 01:37:22;;;;;;;0.00;0.00;;;10.50;99.90;;;;;;5053855;28;20185;-65
2022/12/23 01:39:47;;;;;;;0.00;0.00;;;10.60;99.90;;;;;;5054299;28;20203;-65
2022/12/23 01:45:05;;;;;;;0.00;0.00;;;10.80;99.90;;;;;;5034614;28;20236;-65
2022/12/23 01:47:59;;;;;;;0.00;0.00;;;10.80;99.90;;;;;;5046738;28;20203;-65
2022/12/23 01:50:28;;;;;;;0.00;0.00;;;10.80;99.90;;;;;;5052849;28;20535;-65
2022/12/23 01:53:06;;;;;;;0.00;0.00;;;10.90;99.90;;;;;;5054036;28;20246;-66
2022/12/23 01:55:37;;;;;;;0.00;0.00;;;11.00;99.90;;;;;;5054048;28;20259;-65
2022/12/23 01:58:21;;;;;;;0.00;0.00;;;11.00;99.90;;;;;;5053803;28;20174;-65
2022/12/23 02:03:41;;;;;;;0.00;0.00;;;11.10;99.90;;;;;;5054148;28;20193;-65
2022/12/23 02:09:18;;;;;;;0.00;0.00;;;11.20;99.90;;;;;;5053645;28;20184;-65
2022/12/23 02:12:20;;;;;;;0.00;0.00;;;11.30;99.90;;;;;;5053391;28;20240;-65
2022/12/23 02:18:30;;;;;;;0.00;0.00;;;11.40;99.90;;;;;;5042344;28;20196;-65
2022/12/23 02:21:35;;;;;;;0.00;0.00;;;11.40;99.90;;;;;;5015318;28;20251;-65
2022/12/23 02:24:21;;;;;;;0.00;0.00;;;11.40;99.90;;;;;;5024618;28;20197;-65
2022/12/23 02:27:12;;;;;;;0.00;0.00;;;11.40;99.90;;;;;;5052525;28;20219;-65
2022/12/23 02:29:59;;;;;;;0.00;0.00;;;11.50;99.90;;;;;;5053704;28;20723;-65
2022/12/23 02:32:34;;;;;;;0.00;0.00;;;11.50;99.90;;;;;;5053557;28;20223;-65
2022/12/23 02:35:09;;;;;;;0.00;0.00;;;11.50;99.90;;;;;;5053224;28;20214;-65
2022/12/23 02:37:53;;;;;;;0.00;0.00;;;11.50;99.90;;;;;;5053516;28;20255;-65
2022/12/23 02:40:37;;;;;;;0.00;0.00;;;11.50;99.90;;;;;;5050645;28;20174;-65
2022/12/23 02:43:03;;;;;;;0.00;0.00;;;11.50;99.90;;;;;;5053337;28;20212;-64
2022/12/23 02:45:33;;;;;;;0.00;0.00;;;11.50;99.90;;;;;;5053086;28;20205;-64
2022/12/23 02:48:07;;;;;;;0.00;0.00;;;11.50;99.90;;;;;;5044227;28;20186;-65
2022/12/23 02:50:36;;;;;;;0.00;0.00;;;11.50;99.90;;;;;;5047132;28;20591;-64
2022/12/23 02:53:19;;;;;;;0.00;0.00;;;11.50;99.90;;;;;;5052719;28;20182;-64
2022/12/23 02:55:47;;;;;;;0.00;0.00;;;11.40;99.90;;;;;;5053084;28;20227;-65
2022/12/23 02:58:16;;;;;;;0.00;0.00;;;11.40;99.90;;;;;;5052446;28;20178;-65
2022/12/23 03:00:42;;;;;;;0.00;0.00;;;11.40;99.90;;;;;;5051334;28;20177;-65
2022/12/23 03:03:08;;;;;;;0.00;0.00;;;11.40;99.90;;;;;;5052967;28;20284;-65
2022/12/23 03:05:43;;;;;;;0.00;0.00;;;11.40;99.90;;;;;;5051436;28;20536;-65
2022/12/23 03:08:16;;;;;;;0.00;0.00;;;11.40;99.90;;;;;;5052812;28;20264;-64
2022/12/23 03:11:10;;;;;;;0.00;0.00;;;11.40;99.90;;;;;;5052503;28;20193;-64
2022/12/23 03:13:42;;;;;;;0.00;0.00;;;11.40;99.90;;;;;;5049873;28;20255;-65
2022/12/23 03:16:29;;;;;;;0.00;0.00;;;11.40;99.90;;;;;;5052193;28;20185;-65
2022/12/23 03:19:30;;;;;;;0.00;0.00;;;11.40;99.90;;;;;;5050668;28;20181;-65
2022/12/23 03:22:19;;;;;;;0.00;0.00;;;11.40;99.90;;;;;;5031797;28;20243;-65
2022/12/23 03:25:07;;;;;;;0.00;0.00;;;11.30;99.90;;;;;;5051720;28;20177;-65
2022/12/23 03:27:38;;;;;;;0.00;0.00;;;11.40;99.90;;;;;;5052202;28;20251;-65
2022/12/23 03:30:10;;;;;;;0.00;0.00;;;11.30;99.90;;;;;;5051650;28;20196;-65
2022/12/23 03:32:41;;;;;;;0.00;0.00;;;11.30;99.90;;;;;;5051926;28;20588;-65
2022/12/23 03:35:10;;;;;;;0.00;0.00;;;11.30;99.90;;;;;;5050440;28;20181;-64
2022/12/23 03:37:39;;;;;;;0.00;0.00;;;11.30;99.90;;;;;;5051626;28;20214;-65
2022/12/23 03:40:18;;;;;;;0.00;0.00;;;11.30;99.90;;;;;;5051036;28;20526;-64
2022/12/23 03:42:49;;;;;;;0.00;0.00;;;11.30;99.90;;;;;;5045044;28;20181;-65
2022/12/23 03:45:20;;;;;;;0.00;0.00;;;11.30;99.90;;;;;;5051108;28;20256;-65
2022/12/23 03:47:53;;;;;;;0.10;0.10;;;11.30;99.90;;;;;;5048964;28;20596;-65
2022/12/23 03:50:21;;;;;;;0.00;0.00;;;11.30;99.90;;;;;;5051443;28;20189;-65
2022/12/23 03:53:01;;;;;;;0.00;0.00;;;11.30;99.90;;;;;;5051582;28;20266;-65
2022/12/23 03:55:36;;;;;;;0.00;0.00;;;11.30;99.90;;;;;;5051390;28;20177;-65
2022/12/23 03:58:13;;;;;;;0.00;0.00;;;11.30;99.90;;;;;;5051819;28;20260;-64
2022/12/23 04:00:46;;;;;;;0.00;0.00;;;11.30;99.90;;;;;;5051631;28;20223;-64
2022/12/23 04:03:31;;;;;;;0.00;0.00;;;11.30;99.90;;;;;;5051447;28;20340;-65
2022/12/23 04:05:59;;;;;;;0.00;0.00;;;11.30;99.90;;;;;;5039953;28;20180;-65
2022/12/23 04:08:33;;;;;;;0.00;0.00;;;11.30;99.90;;;;;;5051306;28;20177;-65
2022/12/23 04:11:00;;;;;;;0.00;0.00;;;11.30;99.90;;;;;;5050515;28;20223;-65
2022/12/23 04:13:27;;;;;;;0.00;0.00;;;11.30;99.90;;;;;;5050928;28;20220;-65
2022/12/23 04:15:53;;;;;;;0.00;0.00;;;11.30;99.90;;;;;;5051308;28;20185;-65
2022/12/23 04:18:19;;;;;;;0.00;0.00;;;11.30;99.90;;;;;;5051686;28;20193;-65
2022/12/23 04:20:44;;;;;;;0.00;0.00;;;11.30;99.90;;;;;;5051186;28;20181;-65
2022/12/23 04:23:10;;;;;;;0.00;0.00;;;11.30;99.90;;;;;;5050809;28;20243;-65
2022/12/23 04:25:35;;;;;;;0.00;0.00;;;11.30;99.90;;;;;;5050876;28;20614;-65
2022/12/23 04:28:01;;;;;;;0.00;0.00;;;11.20;99.90;;;;;;5051322;28;20254;-65
2022/12/23 04:30:27;;;;;;;0.00;0.00;;;11.30;99.90;;;;;;5051390;28;20675;-65
2022/12/23 04:32:52;;;;;;;0.00;0.00;;;11.30;99.90;;;;;;5051488;28;20229;-65
2022/12/23 04:35:18;;;;;;;0.00;0.00;;;11.30;99.90;;;;;;5051448;28;20640;-64
2022/12/23 04:37:43;;;;;;;0.00;0.00;;;11.30;99.90;;;;;;5051077;28;20192;-65
2022/12/23 04:40:09;;;;;;;0.00;0.00;;;11.30;99.90;;;;;;5051623;28;20188;-65
2022/12/23 04:42:34;;;;;;;0.00;0.00;;;11.30;99.90;;;;;;5051464;28;20174;-65
2022/12/23 04:45:00;;;;;;;0.00;0.00;;;11.20;99.90;;;;;;5050901;28;20184;-65
2022/12/23 04:47:26;;;;;;;0.00;0.00;;;11.30;99.90;;;;;;5046954;28;20180;-65
2022/12/23 04:49:51;;;;;;;0.00;0.00;;;11.20;99.90;;;;;;5047372;28;20642;-65
2022/12/23 04:52:17;;;;;;;0.00;0.00;;;11.30;99.90;;;;;;5050914;28;20209;-65
2022/12/23 04:54:43;;;;;;;0.00;0.00;;;11.30;99.90;;;;;;5051217;28;20178;-65
2022/12/23 04:57:09;;;;;;;0.00;0.00;;;11.20;99.90;;;;;;5051110;28;20641;-65
2022/12/23 04:59:34;;;;;;;0.00;0.00;;;11.20;99.90;;;;;;5049923;28;20220;-65
2022/12/23 05:02:00;;;;;;;0.00;0.00;;;11.20;99.90;;;;;;5051073;28;20272;-65
2022/12/23 05:04:25;;;;;;;0.00;0.00;;;11.20;99.90;;;;;;5054555;28;20185;-65
2022/12/23 05:06:51;;;;;;;0.00;0.00;;;11.20;99.90;;;;;;5053452;28;20239;-65
2022/12/23 05:09:17;;;;;;;0.00;0.00;;;11.20;99.90;;;;;;5054772;28;20260;-65
2022/12/23 05:11:42;;;;;;;0.00;0.00;;;11.20;99.90;;;;;;5054617;28;20221;-65
2022/12/23 05:14:11;;;;;;;0.00;0.00;;;11.20;99.90;;;;;;5055059;28;20617;-65
2022/12/23 05:16:37;;;;;;;0.00;0.00;;;11.20;99.90;;;;;;5054857;28;20169;-66
2022/12/23 05:19:02;;;;;;;0.00;0.00;;;11.20;99.90;;;;;;5054822;28;20184;-65
2022/12/23 05:21:28;;;;;;;0.00;0.00;;;11.20;99.90;;;;;;5054791;28;20181;-65
2022/12/23 05:23:54;;;;;;;0.00;0.00;;;11.30;99.90;;;;;;5054350;28;20258;-65
2022/12/23 05:26:19;;;;;;;0.00;0.00;;;11.20;99.90;;;;;;5054671;28;20178;-65
2022/12/23 05:28:45;;;;;;;0.00;0.00;;;11.30;99.90;;;;;;5054372;28;20300;-65
2022/12/23 05:31:11;;;;;;;0.00;0.00;;;11.30;99.90;;;;;;5054210;28;20262;-65
2022/12/23 05:33:37;;;;;;;0.00;0.00;;;11.30;99.90;;;;;;5052862;28;20514;-65
2022/12/23 05:36:04;;;;;;;0.00;0.00;;;11.30;99.90;;;;;;5052812;28;20177;-65
2022/12/23 05:38:30;;;;;;;0.00;0.00;;;11.30;99.90;;;;;;5053885;28;20197;-65
2022/12/23 05:40:56;;;;;;;0.00;0.00;;;11.20;99.90;;;;;;5053955;28;20629;-65
2022/12/23 05:43:22;;;;;;;0.00;0.00;;;11.20;99.90;;;;;;5054152;28;20181;-65
2022/12/23 05:45:48;;;;;;;0.00;0.00;;;11.20;99.90;;;;;;5053886;28;20311;-65
2022/12/23 05:48:14;;;;;;;0.00;0.00;;;11.20;99.90;;;;;;5047069;28;20538;-64
2022/12/23 05:50:39;;;;;;;0.00;0.00;;;11.10;99.90;;;;;;5054355;28;20173;-65
2022/12/23 05:53:06;;;;;;;0.00;0.00;;;11.10;99.90;;;;;;5053572;28;20213;-65
2022/12/23 05:55:31;;;;;;;0.00;0.00;;;11.10;99.90;;;;;;5054045;28;20177;-65
2022/12/23 05:57:57;;;;;;;0.00;0.00;;;11.10;99.90;;;;;;5054213;28;20193;-65
2022/12/23 06:00:23;;;;;;;0.00;0.00;;;11.10;99.90;;;;;;5052569;28;20182;-65
2022/12/23 06:02:48;;;;;;;0.00;0.00;;;11.10;99.90;;;;;;5053738;28;20643;-66
2022/12/23 06:05:14;;;;;;;0.17;0.13;;;11.10;99.90;;;;;;5052188;28;20736;-65
2022/12/23 06:07:40;;;;;;;0.00;0.00;;;11.10;99.90;;;;;;5053740;28;20227;-65
2022/12/23 06:10:07;;;;;;;0.00;0.00;;;11.10;99.90;;;;;;5053662;28;20544;-65
2022/12/23 06:12:32;;;;;;;0.00;0.00;;;11.10;99.90;;;;;;5053432;28;20323;-65
2022/12/23 06:14:58;;;;;;;0.00;0.00;;;11.10;99.90;;;;;;5053404;28;20690;-66
2022/12/23 06:17:23;;;;;;;0.00;0.00;;;11.10;99.90;;;;;;5053922;28;20181;-65
2022/12/23 06:19:49;;;;;;;0.00;0.00;;;11.10;99.90;;;;;;5053482;28;20192;-65
2022/12/23 06:22:16;;;;;;;0.00;0.00;;;11.10;99.90;;;;;;5053490;28;20193;-65
2022/12/23 06:24:42;;;;;;;0.00;0.00;;;11.10;99.90;;;;;;5053384;28;20174;-65
2022/12/23 06:27:07;;;;;;;0.00;0.00;;;11.10;99.90;;;;;;5053407;28;20189;-65
2022/12/23 06:29:33;;;;;;;0.00;0.00;;;11.10;99.90;;;;;;5053248;28;20173;-65
2022/12/23 06:31:58;;;;;;;0.00;0.00;;;11.10;99.90;;;;;;5053402;28;20243;-65
2022/12/23 06:34:24;;;;;;;0.00;0.00;;;11.10;99.90;;;;;;5053430;28;20181;-65
2022/12/23 06:36:49;;;;;;;0.00;0.00;;;11.10;99.90;;;;;;5053142;28;20188;-66
2022/12/23 06:39:15;;;;;;;0.00;0.00;;;11.10;99.90;;;;;;5052850;28;20227;-65
2022/12/23 06:41:40;;;;;;;0.00;0.00;;;11.10;99.90;;;;;;5053352;28;20239;-65
2022/12/23 06:44:06;;;;;;;0.00;0.00;;;11.00;99.90;;;;;;5052897;28;20204;-66
2022/12/23 06:46:32;;;;;;;0.00;0.00;;;11.00;99.90;;;;;;5053140;28;20568;-66
2022/12/23 06:48:57;;;;;;;0.00;0.00;;;11.00;99.90;;;;;;5053340;28;20185;-65
2022/12/23 06:51:23;;;;;;;0.00;0.00;;;11.00;99.90;;;;;;5051546;28;20667;-65
2022/12/23 06:53:48;;;;;;;0.00;0.00;;;11.00;99.90;;;;;;5052574;28;20543;-65
2022/12/23 06:56:14;;;;;;;0.00;0.00;;;11.00;99.90;;;;;;5052619;28;20213;-65
2022/12/23 06:58:39;;;;;;;0.00;0.00;;;11.00;99.90;;;;;;5053019;28;20182;-66
2022/12/23 07:01:05;;;;;;;0.00;0.00;;;11.00;99.90;;;;;;5052735;28;20259;-65
2022/12/23 07:03:30;;;;;;;0.00;0.00;;;10.90;99.90;;;;;;5052718;28;20182;-65
2022/12/23 07:05:56;;;;;;;0.00;0.00;;;10.90;99.90;;;;;;5053009;28;20209;-65
2022/12/23 07:08:22;;;;;;;0.20;0.20;;;10.90;99.90;;;;;;5052431;28;20193;-65
2022/12/23 07:10:47;;;;;;;0.00;0.00;;;10.90;99.90;;;;;;5052190;28;20672;-65
2022/12/23 07:13:13;;;;;;;0.00;0.00;;;10.90;99.90;;;;;;5052613;28;20240;-66
2022/12/23 07:15:38;;;;;;;0.00;0.00;;;10.90;99.90;;;;;;5052402;28;20655;-65
2022/12/23 07:18:05;;;;;;;0.22;0.13;;;11.00;99.90;;;;;;5052659;28;20173;-65
2022/12/23 07:20:30;;;;;;;0.00;0.00;;;11.00;99.90;;;;;;5052658;28;20188;-65
2022/12/23 07:22:56;;;;;;;0.00;0.00;;;10.90;99.90;;;;;;5050886;28;20185;-65
2022/12/23 07:25:23;;;;;;;0.10;0.10;;;11.00;99.90;;;;;;5051951;28;20182;-65
2022/12/23 07:27:53;;;;;;;0.00;0.00;;;11.00;99.90;;;;;;5052599;28;20177;-66
2022/12/23 07:30:19;;;;;;;0.00;0.00;;;11.00;99.90;;;;;;5052162;28;20235;-65
2022/12/23 07:32:49;;;;;;;0.00;0.00;;;11.00;99.90;;;;;;5052334;28;20209;-65
2022/12/23 07:35:14;;;;;;;0.00;0.00;;;11.00;99.90;;;;;;5051427;28;20185;-66
2022/12/23 07:37:40;;;;;;;0.00;0.00;;;11.00;99.90;;;;;;5051903;28;20590;-65
2022/12/23 07:40:07;;;;;;;0.00;0.00;;;11.00;99.90;;;;;;5051917;28;20189;-65
2022/12/23 07:42:32;;;;;;;0.43;0.20;;;11.00;99.90;;;;;;5050838;28;20169;-66
2022/12/23 07:44:58;;;;;;;0.00;0.00;;;11.00;99.90;;;;;;5051878;28;20195;-66
2022/12/23 07:47:24;;;;;;;0.00;0.00;;;11.00;99.90;;;;;;5051757;28;20197;-65
2022/12/23 07:49:49;;;;;;;0.00;0.00;;;11.00;99.90;;;;;;5050722;28;20216;-66
2022/12/23 07:52:15;;;;;;;0.00;0.00;;;11.00;99.90;;;;;;5051719;28;20208;-65
2022/12/23 07:54:41;;;;;;;0.00;0.00;;;11.10;99.90;;;;;;5052024;28;20173;-65
2022/12/23 07:57:06;;;;;;;0.00;0.00;;;11.10;99.90;;;;;;5052095;28;20645;-66
2022/12/23 07:59:32;;;;;;;0.00;0.00;;;11.10;99.90;;;;;;5051966;28;20260;-65
2022/12/23 08:01:57;;;;;;;0.00;0.00;;;11.10;99.90;;;;;;5050714;28;20196;-66
2022/12/23 08:04:23;;;;;;;0.00;0.00;;;11.10;99.90;;;;;;5051801;28;20184;-65
2022/12/23 08:06:48;;;;;;;0.00;0.00;;;11.10;99.90;;;;;;5051669;28;20193;-66
2022/12/23 08:09:14;;;;;;;0.00;0.00;;;11.20;99.90;;;;;;5052157;28;20745;-65
2022/12/23 08:11:39;;;;;;;0.00;0.00;;;11.20;99.90;;;;;;5050516;28;20696;-66
2022/12/23 08:14:05;;;;;;;0.00;0.00;;;11.20;99.90;;;;;;5060557;28;20180;-65
2022/12/23 08:16:31;;;;;;;0.00;0.00;;;11.20;99.90;;;;;;5054708;28;20180;-63
2022/12/23 08:18:56;;;;;;;0.15;0.00;;;11.30;99.90;;;;;;5050930;28;20182;-63
2022/12/23 08:21:22;;;;;;;0.00;0.00;;;11.30;99.90;;;;;;5049606;28;20679;-61
2022/12/23 08:23:48;;;;;;;0.00;0.00;;;11.30;99.90;;;;;;5051315;28;20182;-66
2022/12/23 08:26:18;;;;;;;0.00;0.00;;;11.40;99.90;;;;;;5051421;28;20176;-63
2022/12/23 08:28:44;;;;;;;0.00;0.00;;;11.30;99.90;;;;;;5052117;28;20284;-61
2022/12/23 08:31:17;;;;;;;0.00;0.00;;;11.40;99.90;;;;;;5051674;28;20202;-62
2022/12/23 08:33:46;;;;;;;0.00;0.00;;;11.40;99.90;;;;;;5051641;28;20181;-62
2022/12/23 08:36:20;;;;;;;0.00;0.00;;;11.40;99.90;;;;;;5052003;28;20173;-61
2022/12/23 08:38:46;;;;;;;0.10;0.10;;;11.40;99.90;;;;;;5054244;28;20538;-61
2022/12/23 08:41:19;;;;;;;0.00;0.00;;;11.50;99.90;;;;;;5055355;28;20173;-62
2022/12/23 08:43:45;;;;;;;0.00;0.00;;;11.60;99.90;;;;;;5036056;28;20595;-62
2022/12/23 08:46:10;;;;;;;0.00;0.00;;;11.70;99.90;;;;;;5045531;28;20718;-59
2022/12/23 08:48:36;;;;;;;0.00;0.00;;;11.70;99.90;;;;;;5055889;28;20177;-63
2022/12/23 08:51:11;;;;;;;0.32;0.05;;;11.80;99.90;;;;;;5054027;28;20173;-64
2022/12/23 08:53:38;;;;;;;0.00;0.00;;;11.80;99.90;;;;;;5052549;28;20185;-65
2022/12/23 08:56:06;;;;;;;0.00;0.00;;;11.80;99.90;;;;;;5055050;28;20173;-64
2022/12/23 08:58:39;;;;;;;0.00;0.00;;;11.80;99.90;;;;;;5055398;28;20267;-64
2022/12/23 09:01:07;;;;;;;0.00;0.00;;;11.90;99.90;;;;;;5055277;28;20217;-64
2022/12/23 09:03:33;;;;;;;0.00;0.00;;;11.90;99.90;;;;;;5055410;28;20182;-64
2022/12/23 09:06:02;;;;;;;1.67;0.73;;;11.90;99.90;;;;;;5055148;28;20203;-64
2022/12/23 09:08:28;;;;;;;0.00;0.00;;;12.00;99.90;;;;;;5055294;28;20177;-63
2022/12/23 09:10:53;;;;;;;0.00;0.00;;;12.10;99.90;;;;;;5055051;28;20574;-64
2022/12/23 09:13:19;;;;;;;0.00;0.00;;;12.20;99.90;;;;;;5054870;28;20217;-64
2022/12/23 09:15:44;;;;;;;0.00;0.00;;;12.20;99.90;;;;;;5055623;28;20237;-64
2022/12/23 09:18:11;;;;;;;0.00;0.00;;;12.20;99.90;;;;;;5055064;28;20181;-64
2022/12/23 09:20:37;;;;;;;0.00;0.00;;;12.20;99.90;;;;;;5053759;28;20189;-64
2022/12/23 09:23:04;;;;;;;0.00;0.00;;;12.20;99.90;;;;;;5054666;28;20184;-64
2022/12/23 09:25:29;;;;;;;0.00;0.00;;;12.20;99.90;;;;;;5054788;28;20177;-64
2022/12/23 09:27:55;;;;;;;0.00;0.00;;;12.20;99.90;;;;;;5054861;28;20524;-64
2022/12/23 09:30:21;;;;;;;0.00;0.00;;;12.30;99.90;;;;;;5058627;28;20182;-64
2022/12/23 09:32:46;;;;;;;0.00;0.00;;;12.30;99.90;;;;;;5054807;28;20259;-64
2022/12/23 09:35:12;;;;;;;0.00;0.00;;;12.30;99.90;;;;;;5054929;28;20170;-64
2022/12/23 09:37:37;;;;;;;0.00;0.00;;;12.30;99.90;;;;;;5051677;28;20581;-65
2022/12/23 09:40:04;;;;;;;0.00;0.00;;;12.40;99.90;;;;;;5052306;28;20188;-64
2022/12/23 09:42:50;;;;;;;0.00;0.00;;;12.40;99.90;;;;;;5054613;28;20182;-65
2022/12/23 09:45:59;;;;;;;0.00;0.00;;;12.40;99.90;;;;;;5054486;28;20556;-65
2022/12/23 09:48:30;;;;;;;0.00;0.00;;;12.40;99.90;;;;;;5031813;28;20253;-65
2022/12/23 09:50:56;;;;;;;0.00;0.00;;;12.40;99.90;;;;;;5050829;28;20196;-65
2022/12/23 09:53:25;;;;;;;0.05;0.05;;;12.40;99.90;;;;;;5054257;28;20185;-65
2022/12/23 09:55:57;;;;;;;0.00;0.00;;;12.40;99.90;;;;;;5054414;28;20166;-65
2022/12/23 09:58:45;;;;;;;0.00;0.00;;;12.40;99.90;;;;;;5054023;28;20666;-64
2022/12/23 10:01:23;;;;;;;0.00;0.00;;;12.30;99.90;;;;;;5054092;28;20197;-65
2022/12/23 10:04:13;;;;;;;0.00;0.00;;;12.30;99.90;;;;;;5053824;28;20185;-64
2022/12/23 10:06:42;;;;;;;0.00;0.00;;;12.20;99.90;;;;;;5043193;28;20177;-65
2022/12/23 10:09:09;;;;;;;0.00;0.00;;;12.20;99.90;;;;;;5053213;28;20247;-64
2022/12/23 10:11:38;;;;;;;0.00;0.00;;;12.30;99.90;;;;;;5053244;28;20240;-65
2022/12/23 10:14:14;;;;;;;0.00;0.00;;;12.30;99.90;;;;;;5053675;28;20196;-65
2022/12/23 10:16:51;;;;;;;0.00;0.00;;;12.20;99.90;;;;;;5053253;28;20173;-65
2022/12/23 10:19:25;;;;;;;0.00;0.00;;;12.20;99.90;;;;;;5053569;28;20256;-65
2022/12/23 10:22:00;;;;;;;0.00;0.00;;;12.20;99.90;;;;;;5050159;28;20184;-66
2022/12/23 10:24:39;;;;;;;0.00;0.00;;;12.10;99.90;;;;;;5053574;28;20181;-65
2022/12/23 10:27:18;;;;;;;0.00;0.00;;;12.10;99.90;;;;;;5053145;28;20180;-65
2022/12/23 10:29:44;;;;;;;0.00;0.00;;;12.10;99.90;;;;;;5039879;28;20196;-65
2022/12/23 10:32:40;;;;;;;0.00;0.00;;;12.10;99.90;;;;;;5052955;28;20217;-65
2022/12/23 10:35:05;;;;;;;0.00;0.00;;;12.10;99.90;;;;;;5052392;28;20182;-65
2022/12/23 10:37:43;;;;;;;0.00;0.00;;;12.10;99.90;;;;;;5053218;28;20518;-65
2022/12/23 10:40:31;;;;;;;0.00;0.00;;;12.10;99.90;;;;;;5053246;28;20196;-65
2022/12/23 10:43:11;;;;;;;0.00;0.00;;;12.10;99.90;;;;;;5051232;28;20181;-64
2022/12/23 10:45:57;;;;;;;0.00;0.00;;;12.10;99.90;;;;;;5050827;28;20542;-65
2022/12/23 10:48:25;;;;;;;0.00;0.00;;;12.10;99.90;;;;;;5053426;28;20178;-65
2022/12/23 10:51:16;;;;;;;0.00;0.00;;;12.10;99.90;;;;;;5053580;28;20649;-66
2022/12/23 10:53:59;;;;;;;0.00;0.00;;;12.10;99.90;;;;;;5046180;28;20181;-65
2022/12/23 10:56:27;;;;;;;0.00;0.00;;;12.10;99.90;;;;;;5053085;28;20231;-66
2022/12/23 10:58:55;;;;;;;0.00;0.00;;;12.10;99.90;;;;;;5052612;28;20718;-66
2022/12/23 11:01:22;;;;;;;0.00;0.00;;;12.10;99.90;;;;;;5051618;28;20182;-66
2022/12/23 11:04:04;;;;;;;0.00;0.00;;;12.10;99.90;;;;;;5052900;28;20178;-66
2022/12/23 11:06:32;;;;;;;0.00;0.00;;;12.10;99.90;;;;;;5053023;28;20201;-65
2022/12/23 11:09:01;;;;;;;0.00;0.00;;;12.10;99.90;;;;;;5052587;28;20192;-66
2022/12/23 11:11:57;;;;;;;0.00;0.00;;;12.20;99.90;;;;;;5052793;28;20709;-65
2022/12/23 11:14:28;;;;;;;0.03;0.03;;;12.20;99.90;;;;;;5032951;28;20184;-66
2022/12/23 11:16:54;;;;;;;0.00;0.00;;;12.20;99.90;;;;;;5033396;28;20229;-66
2022/12/23 11:19:19;;;;;;;0.00;0.00;;;12.30;99.90;;;;;;5052838;28;20527;-66
2022/12/23 11:21:59;;;;;;;0.00;0.00;;;12.30;99.90;;;;;;5052480;28;20694;-66
2022/12/23 11:24:27;;;;;;;0.00;0.00;;;12.30;99.90;;;;;;5052578;28;20169;-66
2022/12/23 11:27:04;;;;;;;0.00;0.00;;;12.30;99.90;;;;;;5050765;28;20181;-66
2022/12/23 11:29:37;;;;;;;0.05;0.05;;;12.30;99.90;;;;;;5053513;28;20181;-65
2022/12/23 11:32:26;;;;;;;0.00;0.00;;;12.30;99.90;;;;;;5041975;28;20214;-66
2022/12/23 11:34:52;;;;;;;0.00;0.00;;;12.30;99.90;;;;;;5052418;28;20628;-65
2022/12/23 11:37:47;;;;;;;0.00;0.00;;;12.30;99.90;;;;;;5052478;28;20239;-66
2022/12/23 11:40:26;;;;;;;0.10;0.10;;;12.40;99.90;;;;;;5043433;28;20197;-66
2022/12/23 11:43:11;;;;;;;0.00;0.00;;;12.40;99.90;;;;;;5052347;28;20658;-66
2022/12/23 11:45:37;;;;;;;0.00;0.00;;;12.40;99.90;;;;;;5052402;28;20256;-66
2022/12/23 11:48:04;;;;;;;0.00;0.00;;;12.40;99.90;;;;;;5051898;28;20193;-66
2022/12/23 11:50:38;;;;;;;0.00;0.00;;;12.40;99.90;;;;;;5052184;28;20165;-66
2022/12/23 11:53:18;;;;;;;0.00;0.00;;;12.40;99.90;;;;;;5047073;28;20218;-66
2022/12/23 11:56:07;;;;;;;0.00;0.00;;;12.40;99.90;;;;;;5041142;28;20655;-65
2022/12/23 11:58:47;;;;;;;0.00;0.00;;;12.40;99.90;;;;;;5057770;28;20196;-65
2022/12/23 12:01:23;;;;;;;0.00;0.00;;;12.30;99.90;;;;;;5067776;28;20173;-65
2022/12/23 12:03:58;;;;;;;0.00;0.00;;;12.30;99.90;;;;;;5051814;28;20216;-66
2022/12/23 12:06:25;;;;;;;0.00;0.00;;;12.40;99.90;;;;;;5052124;28;20220;-66
2022/12/23 12:08:54;;;;;;;0.00;0.00;;;12.40;99.90;;;;;;5050317;28;20186;-65
2022/12/23 12:11:38;;;;;;;0.00;0.00;;;12.40;99.90;;;;;;5051039;28;20581;-66
2022/12/23 12:14:07;;;;;;;0.00;0.00;;;12.40;99.90;;;;;;5051895;28;20276;-65
2022/12/23 12:16:50;;;;;;;0.08;0.08;;;12.40;99.90;;;;;;5051890;28;20180;-65
2022/12/23 12:19:28;;;;;;;0.00;0.00;;;12.40;99.90;;;;;;5052059;28;20181;-65
2022/12/23 12:22:00;;;;;;;0.00;0.00;;;12.30;99.90;;;;;;5037370;28;20185;-64
2022/12/23 12:24:31;;;;;;;0.00;0.00;;;12.30;99.90;;;;;;5051954;28;20185;-64
2022/12/23 12:27:02;;;;;;;0.00;0.00;;;12.30;99.90;;;;;;5045480;28;20629;-65
2022/12/23 12:29:50;;;;;;;0.00;0.00;;;12.30;99.90;;;;;;5051554;28;20192;-64
2022/12/23 12:32:49;;;;;;;0.00;0.00;;;12.30;99.90;;;;;;5051296;28;20212;-63
2022/12/23 12:35:37;;;;;;;0.00;0.00;;;12.40;99.90;;;;;;5031854;28;20174;-65
2022/12/23 12:38:19;;;;;;;0.00;0.00;;;12.40;99.90;;;;;;5042212;28;20177;-67
2022/12/23 12:40:51;;;;;;;0.00;0.00;;;12.30;99.90;;;;;;5051320;28;20189;-64
2022/12/23 12:43:26;;;;;;;0.00;0.00;;;12.30;99.90;;;;;;5047463;28;20287;-64
2022/12/23 12:46:30;;;;;;;0.00;0.00;;;12.40;99.90;;;;;;5051474;28;20185;-64
2022/12/23 12:49:28;;;;;;;0.00;0.00;;;12.30;99.90;;;;;;5048668;28;20249;-64
2022/12/23 12:52:01;;;;;;;0.00;0.00;;;12.30;99.90;;;;;;5050298;28;20232;-64
2022/12/23 12:54:38;;;;;;;0.00;0.00;;;12.30;99.90;;;;;;5048898;28;20177;-64
2022/12/23 12:57:04;;;;;;;0.08;0.08;;;12.30;99.90;;;;;;5051427;28;20310;-64
2022/12/23 12:59:35;;;;;;;0.00;0.00;;;12.30;99.90;;;;;;5051480;28;20660;-65
2022/12/23 13:02:28;;;;;;;0.00;0.00;;;12.20;99.90;;;;;;5051410;28;20189;-64
2022/12/23 13:05:28;;;;;;;0.00;0.00;;;12.20;99.90;;;;;;5065186;28;20628;-64
2022/12/23 13:07:54;;;;;;;0.00;0.00;;;12.20;99.90;;;;;;5071407;28;20181;-63
2022/12/23 13:10:41;;;;;;;0.00;0.00;;;12.20;99.90;;;;;;5056522;28;20181;-63
2022/12/23 13:13:32;;;;;;;0.08;0.08;;;12.10;99.90;;;;;;5050851;28;20224;-63
2022/12/23 13:16:15;;;;;;;0.00;0.00;;;12.10;99.90;;;;;;5050725;28;20244;-63
2022/12/23 13:19:04;;;;;;;0.00;0.00;;;12.10;99.90;;;;;;5050187;28;20636;-62
2022/12/23 13:21:50;;;;;;;0.00;0.00;;;12.00;99.90;;;;;;5031325;28;20174;-63
2022/12/23 13:24:35;;;;;;;0.00;0.00;;;12.00;99.90;;;;;;5046376;28;20184;-63
2022/12/23 13:27:17;;;;;;;0.00;0.00;;;12.00;99.90;;;;;;5054490;28;20173;-63
2022/12/23 13:30:02;;;;;;;0.00;0.00;;;12.00;99.90;;;;;;5053623;28;20260;-63
2022/12/23 13:32:51;;;;;;;0.00;0.00;;;12.10;99.90;;;;;;5052638;28;20858;-64
2022/12/23 13:35:35;;;;;;;0.00;0.00;;;12.10;99.90;;;;;;5054541;28;20186;-63